sensor_id;sensor_type;location;lat;lon;timestamp;pressure;altitude;pressure_sealevel;temperature;humidity
78309;BME280;67566;42.022;21.356;2023-09-19T00:00:30;98826.56;;;19.40;60.31
78309;BME280;67566;42.022;21.356;2023-09-19T00:02:56;98829.97;;;19.37;60.40
78309;BME280;67566;42.022;21.356;2023-09-19T00:05:25;98824.84;;;19.32;60.24
78309;BME280;67566;42.022;21.356;2023-09-19T00:07:53;98820.88;;;19.26;59.97
78309;BME280;67566;42.022;21.356;2023-09-19T00:10:22;98829.31;;;19.24;60.96
78309;BME280;67566;42.022;21.356;2023-09-19T00:12:51;98824.47;;;19.14;60.62
78309;BME280;67566;42.022;21.356;2023-09-19T00:15:17;98830.84;;;19.06;61.56
78309;BME280;67566;42.022;21.356;2023-09-19T00:17:43;98833.38;;;18.99;62.04
78309;BME280;67566;42.022;21.356;2023-09-19T00:20:09;98825.91;;;18.92;61.83
78309;BME280;67566;42.022;21.356;2023-09-19T00:22:41;98822.00;;;18.90;61.70
78309;BME280;67566;42.022;21.356;2023-09-19T00:25:10;98825.03;;;18.88;61.83
78309;BME280;67566;42.022;21.356;2023-09-19T00:27:40;98823.19;;;18.76;62.43
78309;BME280;67566;42.022;21.356;2023-09-19T00:30:09;98823.03;;;18.69;61.66
78309;BME280;67566;42.022;21.356;2023-09-19T00:32:45;98819.53;;;18.68;62.05
78309;BME280;67566;42.022;21.356;2023-09-19T00:35:13;98813.38;;;18.68;62.35
78309;BME280;67566;42.022;21.356;2023-09-19T00:37:40;98811.81;;;18.67;61.74
78309;BME280;67566;42.022;21.356;2023-09-19T00:40:07;98813.72;;;18.66;62.02
78309;BME280;67566;42.022;21.356;2023-09-19T00:42:40;98816.00;;;18.64;62.79
78309;BME280;67566;42.022;21.356;2023-09-19T00:45:07;98802.78;;;18.59;62.72
78309;BME280;67566;42.022;21.356;2023-09-19T00:47:36;98809.28;;;18.58;62.64
78309;BME280;67566;42.022;21.356;2023-09-19T00:50:04;98798.16;;;18.60;63.03
78309;BME280;67566;42.022;21.356;2023-09-19T00:52:33;98807.63;;;18.54;62.39
78309;BME280;67566;42.022;21.356;2023-09-19T00:54:58;98805.81;;;18.58;63.57
78309;BME280;67566;42.022;21.356;2023-09-19T00:57:25;98806.31;;;18.47;63.79
78309;BME280;67566;42.022;21.356;2023-09-19T00:59:53;98812.06;;;18.46;63.18
78309;BME280;67566;42.022;21.356;2023-09-19T01:02:20;98810.22;;;18.50;62.94
78309;BME280;67566;42.022;21.356;2023-09-19T01:04:46;98805.38;;;18.56;62.94
78309;BME280;67566;42.022;21.356;2023-09-19T01:07:12;98792.41;;;18.61;62.84
78309;BME280;67566;42.022;21.356;2023-09-19T01:09:40;98792.84;;;18.63;63.10
78309;BME280;67566;42.022;21.356;2023-09-19T01:12:07;98795.09;;;18.61;63.99
78309;BME280;67566;42.022;21.356;2023-09-19T01:14:38;98796.66;;;18.62;63.20
78309;BME280;67566;42.022;21.356;2023-09-19T01:17:36;98784.31;;;18.61;63.25
78309;BME280;67566;42.022;21.356;2023-09-19T01:23:02;98795.47;;;18.44;64.06
78309;BME280;67566;42.022;21.356;2023-09-19T01:31:33;98796.22;;;18.28;63.72
78309;BME280;67566;42.022;21.356;2023-09-19T01:34:02;98787.78;;;18.30;63.66
78309;BME280;67566;42.022;21.356;2023-09-19T01:36:37;98795.53;;;18.32;64.99
78309;BME280;67566;42.022;21.356;2023-09-19T01:39:07;98793.97;;;18.30;65.04
78309;BME280;67566;42.022;21.356;2023-09-19T01:44:44;98800.94;;;18.32;63.94
78309;BME280;67566;42.022;21.356;2023-09-19T01:47:26;98797.00;;;18.29;64.60
78309;BME280;67566;42.022;21.356;2023-09-19T01:52:28;98793.28;;;18.34;64.48
78309;BME280;67566;42.022;21.356;2023-09-19T01:54:59;98796.75;;;18.34;64.31
78309;BME280;67566;42.022;21.356;2023-09-19T01:58:01;98790.16;;;18.32;64.31
78309;BME280;67566;42.022;21.356;2023-09-19T02:00:32;98787.03;;;18.29;63.87
78309;BME280;67566;42.022;21.356;2023-09-19T02:02:59;98788.81;;;18.25;63.78
78309;BME280;67566;42.022;21.356;2023-09-19T02:05:26;98781.81;;;18.21;63.45
78309;BME280;67566;42.022;21.356;2023-09-19T02:07:53;98785.78;;;18.11;64.29
78309;BME280;67566;42.022;21.356;2023-09-19T02:10:19;98785.00;;;18.10;63.97
78309;BME280;67566;42.022;21.356;2023-09-19T02:12:45;98784.19;;;18.10;63.31
78309;BME280;67566;42.022;21.356;2023-09-19T02:15:10;98793.53;;;18.13;63.31
78309;BME280;67566;42.022;21.356;2023-09-19T02:17:36;98790.38;;;18.10;63.34
78309;BME280;67566;42.022;21.356;2023-09-19T02:20:01;98783.00;;;18.07;63.87
78309;BME280;67566;42.022;21.356;2023-09-19T02:22:34;98779.53;;;18.07;63.39
78309;BME280;67566;42.022;21.356;2023-09-19T02:25:00;98773.06;;;17.96;64.65
78309;BME280;67566;42.022;21.356;2023-09-19T02:27:27;98777.81;;;17.86;65.04
78309;BME280;67566;42.022;21.356;2023-09-19T02:29:52;98780.06;;;17.84;64.57
78309;BME280;67566;42.022;21.356;2023-09-19T02:32:19;98783.44;;;17.81;65.89
78309;BME280;67566;42.022;21.356;2023-09-19T02:34:44;98779.06;;;17.77;65.44
78309;BME280;67566;42.022;21.356;2023-09-19T02:37:10;98788.72;;;17.78;66.08
78309;BME280;67566;42.022;21.356;2023-09-19T02:39:35;98790.66;;;17.77;65.60
78309;BME280;67566;42.022;21.356;2023-09-19T02:42:01;98786.38;;;17.76;65.67
78309;BME280;67566;42.022;21.356;2023-09-19T02:44:29;98790.19;;;17.75;66.30
78309;BME280;67566;42.022;21.356;2023-09-19T02:46:55;98785.59;;;17.76;65.82
78309;BME280;67566;42.022;21.356;2023-09-19T02:49:22;98778.72;;;17.78;65.81
78309;BME280;67566;42.022;21.356;2023-09-19T02:51:48;98774.56;;;17.81;66.10
78309;BME280;67566;42.022;21.356;2023-09-19T02:54:14;98771.06;;;17.80;65.91
78309;BME280;67566;42.022;21.356;2023-09-19T02:56:41;98773.78;;;17.80;65.68
78309;BME280;67566;42.022;21.356;2023-09-19T02:59:06;98778.81;;;17.82;65.92
78309;BME280;67566;42.022;21.356;2023-09-19T03:01:32;98779.75;;;17.86;65.37
78309;BME280;67566;42.022;21.356;2023-09-19T03:03:58;98776.34;;;17.89;66.27
78309;BME280;67566;42.022;21.356;2023-09-19T03:06:24;98772.88;;;17.88;65.76
78309;BME280;67566;42.022;21.356;2023-09-19T03:08:50;98772.09;;;17.88;66.59
78309;BME280;67566;42.022;21.356;2023-09-19T03:11:17;98769.75;;;17.86;65.97
78309;BME280;67566;42.022;21.356;2023-09-19T03:13:50;98783.22;;;17.86;66.53
78309;BME280;67566;42.022;21.356;2023-09-19T03:16:16;98779.25;;;17.84;66.74
78309;BME280;67566;42.022;21.356;2023-09-19T03:18:41;98770.31;;;17.80;65.67
78309;BME280;67566;42.022;21.356;2023-09-19T03:21:07;98771.00;;;17.77;65.76
78309;BME280;67566;42.022;21.356;2023-09-19T03:23:32;98783.59;;;17.72;66.67
78309;BME280;67566;42.022;21.356;2023-09-19T03:25:58;98784.16;;;17.66;66.43
78309;BME280;67566;42.022;21.356;2023-09-19T03:28:24;98780.25;;;17.63;67.15
78309;BME280;67566;42.022;21.356;2023-09-19T03:31:03;98794.50;;;17.64;66.50
78309;BME280;67566;42.022;21.356;2023-09-19T03:33:29;98784.84;;;17.63;67.13
78309;BME280;67566;42.022;21.356;2023-09-19T03:35:57;98789.69;;;17.57;67.53
78309;BME280;67566;42.022;21.356;2023-09-19T03:38:25;98785.31;;;17.52;67.40
78309;BME280;67566;42.022;21.356;2023-09-19T03:40:51;98777.06;;;17.45;67.91
78309;BME280;67566;42.022;21.356;2023-09-19T03:43:16;98780.88;;;17.44;68.05
78309;BME280;67566;42.022;21.356;2023-09-19T03:45:42;98779.75;;;17.45;67.81
78309;BME280;67566;42.022;21.356;2023-09-19T03:48:11;98773.25;;;17.46;68.24
78309;BME280;67566;42.022;21.356;2023-09-19T03:50:37;98774.34;;;17.45;68.16
78309;BME280;67566;42.022;21.356;2023-09-19T03:53:03;98771.22;;;17.43;68.07
78309;BME280;67566;42.022;21.356;2023-09-19T03:55:29;98773.03;;;17.39;69.01
78309;BME280;67566;42.022;21.356;2023-09-19T03:57:57;98778.13;;;17.28;68.68
78309;BME280;67566;42.022;21.356;2023-09-19T04:00:23;98776.78;;;17.22;68.91
78309;BME280;67566;42.022;21.356;2023-09-19T04:02:52;98778.69;;;17.22;68.43
78309;BME280;67566;42.022;21.356;2023-09-19T04:05:18;98773.56;;;17.16;69.12
78309;BME280;67566;42.022;21.356;2023-09-19T04:07:44;98789.03;;;17.20;69.18
78309;BME280;67566;42.022;21.356;2023-09-19T04:10:10;98792.81;;;17.18;68.68
78309;BME280;67566;42.022;21.356;2023-09-19T04:12:40;98793.38;;;17.24;68.77
78309;BME280;67566;42.022;21.356;2023-09-19T04:15:06;98800.00;;;17.27;68.23
78309;BME280;67566;42.022;21.356;2023-09-19T04:17:32;98798.19;;;17.31;68.60
78309;BME280;67566;42.022;21.356;2023-09-19T04:19:59;98800.75;;;17.40;67.98
78309;BME280;67566;42.022;21.356;2023-09-19T04:22:24;98799.38;;;17.46;68.76
78309;BME280;67566;42.022;21.356;2023-09-19T04:24:50;98798.09;;;17.55;67.82
78309;BME280;67566;42.022;21.356;2023-09-19T04:27:15;98810.22;;;17.62;68.46
78309;BME280;67566;42.022;21.356;2023-09-19T04:29:41;98802.34;;;17.69;67.88
78309;BME280;67566;42.022;21.356;2023-09-19T04:32:07;98803.66;;;17.75;67.36
78309;BME280;67566;42.022;21.356;2023-09-19T04:34:36;98796.91;;;17.81;68.15
78309;BME280;67566;42.022;21.356;2023-09-19T04:37:01;98804.19;;;17.81;67.77
78309;BME280;67566;42.022;21.356;2023-09-19T04:39:27;98809.50;;;17.77;68.22
78309;BME280;67566;42.022;21.356;2023-09-19T04:41:53;98811.91;;;17.82;67.72
78309;BME280;67566;42.022;21.356;2023-09-19T04:44:20;98808.44;;;17.82;67.73
78309;BME280;67566;42.022;21.356;2023-09-19T04:46:46;98806.44;;;17.79;67.88
78309;BME280;67566;42.022;21.356;2023-09-19T04:49:12;98816.00;;;17.76;67.56
78309;BME280;67566;42.022;21.356;2023-09-19T04:51:38;98810.50;;;17.72;67.68
78309;BME280;67566;42.022;21.356;2023-09-19T04:54:04;98806.69;;;17.73;67.91
78309;BME280;67566;42.022;21.356;2023-09-19T04:56:30;98804.78;;;17.74;68.31
78309;BME280;67566;42.022;21.356;2023-09-19T04:58:57;98809.03;;;17.75;68.48
78309;BME280;67566;42.022;21.356;2023-09-19T05:01:24;98807.56;;;17.78;67.66
78309;BME280;67566;42.022;21.356;2023-09-19T05:03:49;98809.75;;;17.72;68.53
78309;BME280;67566;42.022;21.356;2023-09-19T05:06:19;98809.75;;;17.72;68.50
78309;BME280;67566;42.022;21.356;2023-09-19T05:08:48;98812.78;;;17.70;68.50
78309;BME280;67566;42.022;21.356;2023-09-19T05:11:20;98812.06;;;17.73;68.77
78309;BME280;67566;42.022;21.356;2023-09-19T05:13:49;98808.69;;;17.77;68.32
78309;BME280;67566;42.022;21.356;2023-09-19T05:16:16;98819.66;;;17.84;69.07
78309;BME280;67566;42.022;21.356;2023-09-19T05:18:42;98812.84;;;17.86;68.90
78309;BME280;67566;42.022;21.356;2023-09-19T05:21:07;98820.00;;;17.95;68.25
78309;BME280;67566;42.022;21.356;2023-09-19T05:23:33;98808.94;;;18.00;68.54
78309;BME280;67566;42.022;21.356;2023-09-19T05:25:59;98811.06;;;18.06;69.08
78309;BME280;67566;42.022;21.356;2023-09-19T05:28:25;98807.00;;;18.13;68.35
78309;BME280;67566;42.022;21.356;2023-09-19T05:30:55;98809.53;;;18.21;69.16
78309;BME280;67566;42.022;21.356;2023-09-19T05:33:21;98816.69;;;18.29;69.41
78309;BME280;67566;42.022;21.356;2023-09-19T05:35:50;98815.63;;;18.34;68.21
78309;BME280;67566;42.022;21.356;2023-09-19T05:38:15;98810.75;;;18.40;68.41
78309;BME280;67566;42.022;21.356;2023-09-19T05:40:45;98816.59;;;18.42;67.91
78309;BME280;67566;42.022;21.356;2023-09-19T05:43:10;98813.19;;;18.45;67.52
78309;BME280;67566;42.022;21.356;2023-09-19T05:45:36;98814.16;;;18.53;67.08
78309;BME280;67566;42.022;21.356;2023-09-19T05:48:12;98814.69;;;18.58;67.01
78309;BME280;67566;42.022;21.356;2023-09-19T05:50:42;98821.38;;;18.64;68.02
78309;BME280;67566;42.022;21.356;2023-09-19T05:53:08;98819.19;;;18.70;67.22
78309;BME280;67566;42.022;21.356;2023-09-19T05:55:37;98815.91;;;18.77;67.58
78309;BME280;67566;42.022;21.356;2023-09-19T05:58:02;98820.00;;;18.86;67.28
78309;BME280;67566;42.022;21.356;2023-09-19T06:00:29;98813.63;;;18.95;67.04
78309;BME280;67566;42.022;21.356;2023-09-19T06:02:56;98815.72;;;19.01;66.32
78309;BME280;67566;42.022;21.356;2023-09-19T06:05:24;98811.59;;;19.08;66.11
78309;BME280;67566;42.022;21.356;2023-09-19T06:07:52;98810.97;;;19.14;66.03
78309;BME280;67566;42.022;21.356;2023-09-19T06:10:18;98814.97;;;19.20;65.56
78309;BME280;67566;42.022;21.356;2023-09-19T06:12:46;98808.66;;;19.32;65.41
78309;BME280;67566;42.022;21.356;2023-09-19T06:15:13;98810.53;;;19.48;65.93
78309;BME280;67566;42.022;21.356;2023-09-19T06:17:48;98807.81;;;19.67;65.04
78309;BME280;67566;42.022;21.356;2023-09-19T06:20:13;98819.72;;;19.82;64.56
78309;BME280;67566;42.022;21.356;2023-09-19T06:22:43;98803.72;;;19.93;63.97
78309;BME280;67566;42.022;21.356;2023-09-19T06:25:12;98795.50;;;20.09;64.21
78309;BME280;67566;42.022;21.356;2023-09-19T06:27:41;98799.69;;;20.26;63.56
78309;BME280;67566;42.022;21.356;2023-09-19T06:30:09;98800.28;;;20.38;63.57
78309;BME280;67566;42.022;21.356;2023-09-19T06:32:35;98800.31;;;20.42;62.63
78309;BME280;67566;42.022;21.356;2023-09-19T06:35:01;98804.91;;;20.38;62.42
78309;BME280;67566;42.022;21.356;2023-09-19T06:37:28;98810.59;;;20.33;62.87
78309;BME280;67566;42.022;21.356;2023-09-19T06:39:54;98812.03;;;20.27;62.35
78309;BME280;67566;42.022;21.356;2023-09-19T06:42:19;98807.84;;;20.29;62.54
78309;BME280;67566;42.022;21.356;2023-09-19T06:44:46;98818.31;;;20.31;63.06
78309;BME280;67566;42.022;21.356;2023-09-19T06:47:11;98822.50;;;20.28;62.87
78309;BME280;67566;42.022;21.356;2023-09-19T06:49:37;98820.72;;;20.36;63.38
78309;BME280;67566;42.022;21.356;2023-09-19T06:52:02;98821.13;;;20.38;63.00
78309;BME280;67566;42.022;21.356;2023-09-19T06:54:28;98810.84;;;20.47;62.42
78309;BME280;67566;42.022;21.356;2023-09-19T06:56:57;98804.88;;;20.61;63.26
78309;BME280;67566;42.022;21.356;2023-09-19T06:59:25;98802.91;;;20.81;62.63
78309;BME280;67566;42.022;21.356;2023-09-19T07:01:50;98810.25;;;21.07;62.40
78309;BME280;67566;42.022;21.356;2023-09-19T07:04:16;98816.00;;;21.33;61.38
78309;BME280;67566;42.022;21.356;2023-09-19T07:06:44;98808.78;;;21.44;60.56
78309;BME280;67566;42.022;21.356;2023-09-19T07:09:11;98802.84;;;21.61;59.91
78309;BME280;67566;42.022;21.356;2023-09-19T07:11:37;98803.88;;;21.83;59.47
78309;BME280;67566;42.022;21.356;2023-09-19T07:14:03;98802.28;;;22.16;59.18
78309;BME280;67566;42.022;21.356;2023-09-19T07:16:28;98808.63;;;22.31;57.58
78309;BME280;67566;42.022;21.356;2023-09-19T07:18:55;98813.94;;;22.61;57.33
78309;BME280;67566;42.022;21.356;2023-09-19T07:21:22;98798.06;;;22.67;56.78
78309;BME280;67566;42.022;21.356;2023-09-19T07:23:48;98807.44;;;22.73;57.05
78309;BME280;67566;42.022;21.356;2023-09-19T07:26:13;98806.75;;;22.91;56.68
78309;BME280;67566;42.022;21.356;2023-09-19T07:28:39;98814.16;;;22.94;56.74
78309;BME280;67566;42.022;21.356;2023-09-19T07:31:04;98810.31;;;22.98;56.72
78309;BME280;67566;42.022;21.356;2023-09-19T07:33:30;98816.22;;;23.11;56.46
78309;BME280;67566;42.022;21.356;2023-09-19T07:35:56;98815.13;;;23.19;56.03
78309;BME280;67566;42.022;21.356;2023-09-19T07:38:22;98811.25;;;23.21;55.91
78309;BME280;67566;42.022;21.356;2023-09-19T07:40:48;98800.81;;;23.30;55.73
78309;BME280;67566;42.022;21.356;2023-09-19T07:43:13;98818.59;;;23.16;55.43
78309;BME280;67566;42.022;21.356;2023-09-19T07:45:39;98818.19;;;23.14;55.64
78309;BME280;67566;42.022;21.356;2023-09-19T07:48:05;98818.97;;;23.18;56.11
78309;BME280;67566;42.022;21.356;2023-09-19T07:50:33;98810.03;;;23.11;55.68
78309;BME280;67566;42.022;21.356;2023-09-19T07:53:02;98812.00;;;23.17;55.90
78309;BME280;67566;42.022;21.356;2023-09-19T07:55:30;98819.00;;;23.26;56.32
78309;BME280;67566;42.022;21.356;2023-09-19T07:57:55;98820.63;;;23.34;56.29
78309;BME280;67566;42.022;21.356;2023-09-19T08:00:21;98816.41;;;23.40;56.92
78309;BME280;67566;42.022;21.356;2023-09-19T08:02:47;98819.13;;;23.47;56.45
78309;BME280;67566;42.022;21.356;2023-09-19T08:05:13;98819.59;;;23.64;55.68
78309;BME280;67566;42.022;21.356;2023-09-19T08:07:44;98816.13;;;23.70;55.67
78309;BME280;67566;42.022;21.356;2023-09-19T08:10:14;98818.09;;;23.77;54.93
78309;BME280;67566;42.022;21.356;2023-09-19T08:12:44;98821.25;;;23.93;55.62
78309;BME280;67566;42.022;21.356;2023-09-19T08:15:19;98812.72;;;24.02;55.43
78309;BME280;67566;42.022;21.356;2023-09-19T08:17:45;98810.81;;;24.13;54.88
78309;BME280;67566;42.022;21.356;2023-09-19T08:20:12;98812.38;;;24.22;54.98
78309;BME280;67566;42.022;21.356;2023-09-19T08:22:50;98804.25;;;24.25;54.67
78309;BME280;67566;42.022;21.356;2023-09-19T08:25:23;98807.34;;;24.31;54.05
78309;BME280;67566;42.022;21.356;2023-09-19T08:27:50;98816.66;;;24.44;54.12
78309;BME280;67566;42.022;21.356;2023-09-19T08:30:18;98817.09;;;24.43;53.54
78309;BME280;67566;42.022;21.356;2023-09-19T08:32:45;98812.81;;;24.63;53.52
78309;BME280;67566;42.022;21.356;2023-09-19T08:35:11;98816.31;;;24.78;53.51
78309;BME280;67566;42.022;21.356;2023-09-19T08:37:37;98815.53;;;24.81;53.16
78309;BME280;67566;42.022;21.356;2023-09-19T08:40:03;98813.94;;;24.95;52.58
78309;BME280;67566;42.022;21.356;2023-09-19T08:42:29;98809.28;;;25.02;52.43
78309;BME280;67566;42.022;21.356;2023-09-19T08:44:55;98804.66;;;24.85;51.69
78309;BME280;67566;42.022;21.356;2023-09-19T08:47:37;98793.75;;;24.78;52.42
78309;BME280;67566;42.022;21.356;2023-09-19T08:50:19;98788.31;;;24.71;53.15
78309;BME280;67566;42.022;21.356;2023-09-19T08:52:46;98796.06;;;24.76;52.82
78309;BME280;67566;42.022;21.356;2023-09-19T08:55:14;98794.91;;;24.87;52.63
78309;BME280;67566;42.022;21.356;2023-09-19T08:57:46;98792.56;;;24.82;52.52
78309;BME280;67566;42.022;21.356;2023-09-19T09:00:15;98788.28;;;24.78;52.48
78309;BME280;67566;42.022;21.356;2023-09-19T09:02:46;98773.47;;;25.00;52.00
78309;BME280;67566;42.022;21.356;2023-09-19T09:05:12;98773.03;;;25.31;51.82
78309;BME280;67566;42.022;21.356;2023-09-19T09:07:40;98760.47;;;25.51;51.52
78309;BME280;67566;42.022;21.356;2023-09-19T09:10:06;98758.84;;;25.61;51.25
78309;BME280;67566;42.022;21.356;2023-09-19T09:12:32;98749.84;;;25.71;51.14
78309;BME280;67566;42.022;21.356;2023-09-19T09:15:00;98745.44;;;25.95;51.13
78309;BME280;67566;42.022;21.356;2023-09-19T09:17:26;98747.19;;;26.20;50.41
78309;BME280;67566;42.022;21.356;2023-09-19T09:19:54;98748.91;;;26.48;50.22
78309;BME280;67566;42.022;21.356;2023-09-19T09:22:21;98741.69;;;26.72;49.63
78309;BME280;67566;42.022;21.356;2023-09-19T09:24:56;98741.91;;;26.89;49.57
78309;BME280;67566;42.022;21.356;2023-09-19T09:27:26;98744.78;;;27.12;49.13
78309;BME280;67566;42.022;21.356;2023-09-19T09:29:52;98739.34;;;27.09;47.89
78309;BME280;67566;42.022;21.356;2023-09-19T09:34:53;98743.50;;;27.21;47.65
78309;BME280;67566;42.022;21.356;2023-09-19T09:37:20;98729.91;;;27.48;47.32
78309;BME280;67566;42.022;21.356;2023-09-19T09:39:59;98727.25;;;27.41;46.63
78309;BME280;67566;42.022;21.356;2023-09-19T09:42:44;98734.28;;;27.42;47.36
78309;BME280;67566;42.022;21.356;2023-09-19T09:45:19;98722.41;;;27.52;47.67
78309;BME280;67566;42.022;21.356;2023-09-19T09:48:04;98722.09;;;27.46;47.46
78309;BME280;67566;42.022;21.356;2023-09-19T09:50:46;98721.44;;;27.39;46.86
78309;BME280;67566;42.022;21.356;2023-09-19T09:53:27;98715.31;;;27.27;47.99
78309;BME280;67566;42.022;21.356;2023-09-19T09:56:02;98711.97;;;27.12;47.05
78309;BME280;67566;42.022;21.356;2023-09-19T09:58:52;98713.59;;;27.06;47.34
78309;BME280;67566;42.022;21.356;2023-09-19T10:01:20;98715.75;;;26.91;47.94
78309;BME280;67566;42.022;21.356;2023-09-19T10:03:46;98708.06;;;26.79;47.87
78309;BME280;67566;42.022;21.356;2023-09-19T10:06:16;98700.34;;;26.70;48.09
78309;BME280;67566;42.022;21.356;2023-09-19T10:09:01;98693.28;;;26.73;47.89
78309;BME280;67566;42.022;21.356;2023-09-19T10:11:31;98687.47;;;26.71;48.13
78309;BME280;67566;42.022;21.356;2023-09-19T10:14:00;98689.78;;;26.72;47.62
78309;BME280;67566;42.022;21.356;2023-09-19T10:16:32;98678.88;;;26.72;47.82
78309;BME280;67566;42.022;21.356;2023-09-19T10:19:01;98680.00;;;26.75;47.69
78309;BME280;67566;42.022;21.356;2023-09-19T10:21:28;98676.41;;;26.82;47.50
78309;BME280;67566;42.022;21.356;2023-09-19T10:24:00;98671.47;;;27.04;47.70
78309;BME280;67566;42.022;21.356;2023-09-19T10:26:28;98675.25;;;27.44;46.25
78309;BME280;67566;42.022;21.356;2023-09-19T10:28:57;98679.75;;;27.58;46.60
78309;BME280;67566;42.022;21.356;2023-09-19T10:31:26;98689.75;;;27.68;46.56
78309;BME280;67566;42.022;21.356;2023-09-19T10:33:53;98678.63;;;27.56;45.93
78309;BME280;67566;42.022;21.356;2023-09-19T10:36:24;98664.72;;;27.43;45.95
78309;BME280;67566;42.022;21.356;2023-09-19T10:38:52;98661.94;;;27.46;45.87
78309;BME280;67566;42.022;21.356;2023-09-19T10:41:22;98649.44;;;27.73;46.22
78309;BME280;67566;42.022;21.356;2023-09-19T10:43:48;98652.44;;;28.05;45.88
78309;BME280;67566;42.022;21.356;2023-09-19T10:46:15;98645.13;;;28.42;45.25
78309;BME280;67566;42.022;21.356;2023-09-19T10:48:41;98639.50;;;28.73;44.34
78309;BME280;67566;42.022;21.356;2023-09-19T10:51:20;98629.88;;;28.65;42.99
78309;BME280;67566;42.022;21.356;2023-09-19T10:53:55;98628.56;;;28.50;44.08
78309;BME280;67566;42.022;21.356;2023-09-19T10:56:36;98629.44;;;28.67;43.79
78309;BME280;67566;42.022;21.356;2023-09-19T10:59:13;98618.22;;;28.61;43.14
78309;BME280;67566;42.022;21.356;2023-09-19T11:01:52;98612.66;;;28.65;42.81
78309;BME280;67566;42.022;21.356;2023-09-19T11:04:31;98601.22;;;28.70;43.66
78309;BME280;67566;42.022;21.356;2023-09-19T11:07:09;98604.06;;;28.83;43.67
78309;BME280;67566;42.022;21.356;2023-09-19T11:09:55;98609.06;;;29.04;42.68
78309;BME280;67566;42.022;21.356;2023-09-19T11:14:58;98591.94;;;29.20;41.96
78309;BME280;67566;42.022;21.356;2023-09-19T11:23:17;98575.94;;;29.51;41.32
78309;BME280;67566;42.022;21.356;2023-09-19T11:25:43;98574.88;;;29.62;41.35
78309;BME280;67566;42.022;21.356;2023-09-19T11:30:49;98562.94;;;29.68;40.96
78309;BME280;67566;42.022;21.356;2023-09-19T11:33:23;98561.16;;;29.62;40.49
78309;BME280;67566;42.022;21.356;2023-09-19T11:46:26;98534.88;;;29.93;40.74
78309;BME280;67566;42.022;21.356;2023-09-19T11:48:53;98535.25;;;29.63;39.70
78309;BME280;67566;42.022;21.356;2023-09-19T11:51:23;98529.25;;;29.68;40.23
78309;BME280;67566;42.022;21.356;2023-09-19T11:56:20;98519.94;;;29.94;39.35
78309;BME280;67566;42.022;21.356;2023-09-19T11:58:52;98512.97;;;30.06;39.20
78309;BME280;67566;42.022;21.356;2023-09-19T12:01:30;98511.41;;;30.05;38.29
78309;BME280;67566;42.022;21.356;2023-09-19T12:03:57;98509.28;;;29.97;37.79
78309;BME280;67566;42.022;21.356;2023-09-19T12:06:24;98507.91;;;30.05;38.08
78309;BME280;67566;42.022;21.356;2023-09-19T12:08:51;98512.00;;;30.13;37.72
78309;BME280;67566;42.022;21.356;2023-09-19T12:11:19;98503.22;;;30.18;37.61
78309;BME280;67566;42.022;21.356;2023-09-19T12:13:47;98516.22;;;30.30;36.91
78309;BME280;67566;42.022;21.356;2023-09-19T12:16:18;98507.81;;;30.21;37.95
78309;BME280;67566;42.022;21.356;2023-09-19T12:18:47;98501.69;;;30.30;38.03
78309;BME280;67566;42.022;21.356;2023-09-19T12:21:29;98496.59;;;30.45;37.75
78309;BME280;67566;42.022;21.356;2023-09-19T12:26:42;98496.06;;;30.63;36.77
78309;BME280;67566;42.022;21.356;2023-09-19T12:29:16;98479.88;;;30.65;37.70
78309;BME280;67566;42.022;21.356;2023-09-19T12:31:52;98485.63;;;30.71;37.96
78309;BME280;67566;42.022;21.356;2023-09-19T12:34:32;98473.72;;;30.74;38.06
78309;BME280;67566;42.022;21.356;2023-09-19T12:37:05;98470.00;;;30.67;37.65
78309;BME280;67566;42.022;21.356;2023-09-19T12:39:36;98470.00;;;30.67;37.57
78309;BME280;67566;42.022;21.356;2023-09-19T12:42:02;98467.25;;;30.67;38.50
78309;BME280;67566;42.022;21.356;2023-09-19T12:44:29;98465.28;;;30.68;37.79
78309;BME280;67566;42.022;21.356;2023-09-19T12:46:55;98450.88;;;30.77;38.07
78309;BME280;67566;42.022;21.356;2023-09-19T12:49:24;98453.28;;;30.87;37.82
78309;BME280;67566;42.022;21.356;2023-09-19T12:51:54;98449.88;;;30.96;37.38
78309;BME280;67566;42.022;21.356;2023-09-19T12:54:20;98449.31;;;31.01;37.18
78309;BME280;67566;42.022;21.356;2023-09-19T12:56:47;98448.25;;;30.99;37.29
78309;BME280;67566;42.022;21.356;2023-09-19T12:59:16;98453.94;;;31.04;37.05
78309;BME280;67566;42.022;21.356;2023-09-19T13:01:42;98446.91;;;31.03;37.25
78309;BME280;67566;42.022;21.356;2023-09-19T13:04:20;98445.13;;;31.10;36.90
78309;BME280;67566;42.022;21.356;2023-09-19T13:06:52;98440.06;;;31.08;37.60
78309;BME280;67566;42.022;21.356;2023-09-19T13:09:19;98438.31;;;31.01;36.85
78309;BME280;67566;42.022;21.356;2023-09-19T13:11:50;98434.16;;;30.97;37.39
78309;BME280;67566;42.022;21.356;2023-09-19T13:14:26;98430.44;;;31.03;37.18
78309;BME280;67566;42.022;21.356;2023-09-19T13:17:03;98434.25;;;31.06;36.67
78309;BME280;67566;42.022;21.356;2023-09-19T13:19:51;98435.56;;;31.01;36.16
78309;BME280;67566;42.022;21.356;2023-09-19T13:22:45;98429.44;;;30.97;36.86
78309;BME280;67566;42.022;21.356;2023-09-19T13:25:18;98420.94;;;30.92;36.24
78309;BME280;67566;42.022;21.356;2023-09-19T13:27:47;98417.00;;;30.93;37.20
78309;BME280;67566;42.022;21.356;2023-09-19T13:30:17;98418.88;;;30.96;36.37
78309;BME280;67566;42.022;21.356;2023-09-19T13:32:42;98413.56;;;31.01;36.09
78309;BME280;67566;42.022;21.356;2023-09-19T13:35:09;98412.25;;;31.06;36.71
78309;BME280;67566;42.022;21.356;2023-09-19T13:37:36;98415.75;;;31.06;36.28
78309;BME280;67566;42.022;21.356;2023-09-19T13:40:07;98411.94;;;31.04;36.01
78309;BME280;67566;42.022;21.356;2023-09-19T13:42:33;98401.69;;;31.04;36.11